createdAt,value
2019-03-09T00:01:11.990Z,1.80
2019-03-09T00:03:39.353Z,2.03
2019-03-09T00:06:06.664Z,1.63
2019-03-09T00:08:34.428Z,1.43
2019-03-09T00:11:01.744Z,1.63
2019-03-09T00:13:29.204Z,1.70
2019-03-09T00:15:56.685Z,1.63
2019-03-09T00:18:23.995Z,2.03
2019-03-09T00:20:51.332Z,2.40
2019-03-09T00:23:38.805Z,2.17
2019-03-09T00:26:25.968Z,1.67
2019-03-09T00:29:07.046Z,2.10
2019-03-09T00:31:38.451Z,2.03
2019-03-09T00:34:05.760Z,2.20
2019-03-09T00:36:33.070Z,1.97
2019-03-09T00:39:00.334Z,1.67
2019-03-09T00:41:28.151Z,2.27
2019-03-09T00:43:55.509Z,2.00
2019-03-09T00:46:22.929Z,1.73
2019-03-09T00:48:50.262Z,1.40
2019-03-09T00:51:17.628Z,1.20
2019-03-09T00:53:44.959Z,1.97
2019-03-09T00:56:12.473Z,1.87
2019-03-09T00:58:39.808Z,1.60
2019-03-09T01:01:07.051Z,2.27
2019-03-09T01:03:34.390Z,1.70
2019-03-09T01:06:01.610Z,1.50
2019-03-09T01:08:29.003Z,1.57
2019-03-09T01:10:56.222Z,1.97
2019-03-09T01:13:23.571Z,2.00
2019-03-09T01:15:50.875Z,1.80
2019-03-09T01:18:18.296Z,1.97
2019-03-09T01:20:45.718Z,1.70
2019-03-09T01:23:13.076Z,1.90
2019-03-09T01:25:40.390Z,1.63
2019-03-09T01:28:07.841Z,2.03
2019-03-09T01:30:35.204Z,1.83
2019-03-09T01:33:02.568Z,2.07
2019-03-09T01:35:29.899Z,1.90
2019-03-09T01:37:57.264Z,1.63
2019-03-09T01:40:24.623Z,1.87
2019-03-09T01:42:51.986Z,2.07
2019-03-09T01:45:19.327Z,2.00
2019-03-09T01:47:46.548Z,2.23
2019-03-09T01:50:13.964Z,1.73
2019-03-09T01:52:41.263Z,2.07
2019-03-09T01:55:08.687Z,1.73
2019-03-09T01:57:36.170Z,2.47
2019-03-09T02:00:04.648Z,1.77
2019-03-09T02:02:31.902Z,1.90
2019-03-09T02:04:59.223Z,2.33
2019-03-09T02:07:26.468Z,2.57
2019-03-09T02:09:54.011Z,1.90
2019-03-09T02:12:22.938Z,2.20
2019-03-09T02:14:50.173Z,1.83
2019-03-09T02:17:17.733Z,1.87
2019-03-09T02:19:45.048Z,2.20
2019-03-09T02:22:12.278Z,2.03
2019-03-09T02:24:39.620Z,1.60
2019-03-09T02:27:07.067Z,1.87
2019-03-09T02:29:34.563Z,1.90
2019-03-09T02:32:01.800Z,1.90
2019-03-09T02:34:29.128Z,1.87
2019-03-09T02:36:56.514Z,2.00
2019-03-09T02:39:52.638Z,1.50
2019-03-09T02:42:19.948Z,1.97
2019-03-09T02:44:47.265Z,1.70
2019-03-09T02:47:14.525Z,1.80
2019-03-09T02:49:41.778Z,2.20
2019-03-09T02:52:08.976Z,1.77
2019-03-09T02:56:57.923Z,1.90
2019-03-09T02:59:25.341Z,1.63
2019-03-09T03:02:09.012Z,1.93
2019-03-09T03:04:36.349Z,2.10
2019-03-09T03:07:03.773Z,1.60
2019-03-09T03:09:31.221Z,1.53
2019-03-09T03:11:58.462Z,2.30
2019-03-09T03:14:25.792Z,1.77
2019-03-09T03:16:53.049Z,1.50
2019-03-09T03:19:20.437Z,2.00
2019-03-09T03:21:47.789Z,2.40
2019-03-09T03:24:15.106Z,1.70
2019-03-09T03:26:42.544Z,1.60
2019-03-09T03:29:09.998Z,1.80
2019-03-09T03:31:37.900Z,2.40
2019-03-09T03:34:05.281Z,1.60
2019-03-09T03:36:33.024Z,1.70
2019-03-09T03:39:00.278Z,2.13
2019-03-09T03:41:27.768Z,1.70
2019-03-09T03:43:55.179Z,2.30
2019-03-09T03:46:22.528Z,2.00
2019-03-09T03:48:49.754Z,2.17
2019-03-09T03:51:17.382Z,2.10
2019-03-09T03:53:44.689Z,1.70
2019-03-09T03:56:12.125Z,2.23
2019-03-09T03:58:39.570Z,2.30
2019-03-09T04:01:06.982Z,2.23
2019-03-09T04:03:34.423Z,2.17
2019-03-09T04:06:01.741Z,1.83
2019-03-09T04:08:29.675Z,2.30
2019-03-09T04:10:56.976Z,2.10
2019-03-09T04:13:24.314Z,2.33
2019-03-09T04:15:51.608Z,2.50
2019-03-09T04:18:18.842Z,2.40
2019-03-09T04:20:46.175Z,2.60
2019-03-09T04:23:13.529Z,2.30
2019-03-09T04:25:40.848Z,2.20
2019-03-09T04:28:08.102Z,2.30
2019-03-09T04:30:35.611Z,1.70
2019-03-09T04:33:02.832Z,1.90
2019-03-09T04:35:30.288Z,2.33
2019-03-09T04:37:57.603Z,2.40
2019-03-09T04:40:24.948Z,2.43
2019-03-09T04:42:52.283Z,2.07
2019-03-09T04:45:19.598Z,2.13
2019-03-09T04:47:47.060Z,1.97
2019-03-09T04:50:14.460Z,2.10
2019-03-09T04:52:41.857Z,2.43
2019-03-09T04:55:09.595Z,2.20
2019-03-09T04:57:36.929Z,2.77
2019-03-09T05:00:05.445Z,2.10
2019-03-09T05:02:32.880Z,2.17
2019-03-09T05:05:00.356Z,2.47
2019-03-09T05:07:44.735Z,2.40
2019-03-09T05:10:48.788Z,2.40
2019-03-09T05:13:31.419Z,1.97
2019-03-09T05:15:58.687Z,2.13
2019-03-09T05:18:26.019Z,1.97
2019-03-09T05:20:53.412Z,2.77
2019-03-09T05:23:20.878Z,2.33
2019-03-09T05:25:48.322Z,2.40
2019-03-09T05:28:15.743Z,2.83
2019-03-09T05:30:44.350Z,2.80
2019-03-09T05:33:11.680Z,2.90
2019-03-09T05:35:38.901Z,3.10
2019-03-09T05:38:06.253Z,3.27
2019-03-09T05:40:33.609Z,2.90
2019-03-09T05:43:00.920Z,2.97
2019-03-09T05:45:28.563Z,2.90
2019-03-09T05:48:00.934Z,3.27
2019-03-09T05:50:28.897Z,3.03
2019-03-09T05:56:10.715Z,3.63
2019-03-09T05:58:38.936Z,4.47
2019-03-09T06:01:06.866Z,3.90
2019-03-09T06:03:37.906Z,4.00
2019-03-09T06:06:14.173Z,4.53
2019-03-09T06:08:42.258Z,5.00
2019-03-09T06:11:10.096Z,4.63
2019-03-09T06:13:38.062Z,4.90
2019-03-09T06:16:05.847Z,4.90
2019-03-09T06:18:33.938Z,4.43
2019-03-09T06:21:02.009Z,4.40
2019-03-09T06:23:30.081Z,5.07
2019-03-09T06:28:55.514Z,4.43
2019-03-09T06:31:27.393Z,4.93
2019-03-09T06:33:56.348Z,4.47
2019-03-09T06:37:01.406Z,4.70
2019-03-09T06:39:44.120Z,5.13
2019-03-09T06:42:38.659Z,4.97
2019-03-09T06:45:09.431Z,4.40
2019-03-09T06:47:37.404Z,4.83
2019-03-09T06:50:06.699Z,6.07
2019-03-09T06:52:34.482Z,5.90
2019-03-09T06:55:11.718Z,5.43
2019-03-09T06:57:40.214Z,6.33
2019-03-09T07:00:27.796Z,7.40
2019-03-09T07:02:56.211Z,6.63
2019-03-09T07:05:23.945Z,7.00
2019-03-09T07:07:52.086Z,6.13
2019-03-09T07:10:20.102Z,4.43
2019-03-09T07:12:47.945Z,6.03
2019-03-09T07:15:37.641Z,5.57
2019-03-09T07:18:10.762Z,6.13
2019-03-09T07:20:38.520Z,6.90
2019-03-09T07:23:06.838Z,6.93
2019-03-09T07:25:34.673Z,6.77
2019-03-09T07:28:07.864Z,7.73
2019-03-09T07:30:35.773Z,6.30
2019-03-09T07:33:03.644Z,6.23
2019-03-09T07:35:31.817Z,6.67
2019-03-09T07:37:59.464Z,7.47
2019-03-09T07:40:26.997Z,8.10
2019-03-09T07:42:57.530Z,6.67
2019-03-09T07:45:24.972Z,6.63
2019-03-09T07:47:52.291Z,6.47
2019-03-09T07:50:19.539Z,6.47
2019-03-09T07:52:46.825Z,6.10
2019-03-09T07:55:14.169Z,6.00
2019-03-09T07:57:41.716Z,6.47
2019-03-09T08:00:11.403Z,7.23
2019-03-09T08:02:38.717Z,6.60
2019-03-09T08:05:05.999Z,7.33
2019-03-09T08:07:33.268Z,8.00
2019-03-09T08:10:00.565Z,8.40
2019-03-09T08:12:27.850Z,5.97
2019-03-09T08:14:55.178Z,7.60
2019-03-09T08:17:22.519Z,7.13
2019-03-09T08:19:49.918Z,6.93
2019-03-09T08:22:17.251Z,8.20
2019-03-09T08:24:44.635Z,7.33
2019-03-09T08:27:12.190Z,6.80
2019-03-09T08:29:39.529Z,7.50
2019-03-09T08:32:06.882Z,7.60
2019-03-09T08:34:34.235Z,6.90
2019-03-09T08:37:01.594Z,6.93
2019-03-09T08:39:29.146Z,6.97
2019-03-09T08:41:56.494Z,6.70
2019-03-09T08:44:23.837Z,5.93
2019-03-09T08:46:51.319Z,5.40
2019-03-09T08:49:18.688Z,6.17
2019-03-09T08:51:46.016Z,5.40
2019-03-09T08:54:13.378Z,6.40
2019-03-09T08:56:40.768Z,5.10
2019-03-09T08:59:08.153Z,5.67
2019-03-09T09:01:35.454Z,5.43
2019-03-09T09:04:02.817Z,4.90
2019-03-09T09:06:30.024Z,4.30
2019-03-09T09:08:57.397Z,4.57
2019-03-09T09:11:24.782Z,4.50
2019-03-09T09:13:52.005Z,3.90
2019-03-09T09:16:19.552Z,3.50
2019-03-09T09:18:46.861Z,3.20
2019-03-09T09:21:14.219Z,3.03
2019-03-09T09:23:41.740Z,3.03
2019-03-09T09:26:09.236Z,2.30
2019-03-09T09:28:36.507Z,2.60
2019-03-09T09:31:03.848Z,2.63
2019-03-09T09:33:31.495Z,2.50
2019-03-09T09:35:58.881Z,2.63
2019-03-09T09:38:26.327Z,2.30
2019-03-09T09:40:53.669Z,2.27
2019-03-09T09:43:20.994Z,2.20
2019-03-09T09:45:48.538Z,2.30
2019-03-09T09:48:15.799Z,2.13
2019-03-09T09:50:43.029Z,2.03
2019-03-09T09:53:10.535Z,2.00
2019-03-09T09:55:37.785Z,1.70
2019-03-09T09:58:05.104Z,1.43
2019-03-09T10:00:32.473Z,1.50
2019-03-09T10:02:59.926Z,1.20
2019-03-09T10:05:27.339Z,1.13
2019-03-09T10:07:54.701Z,0.90
2019-03-09T10:10:22.032Z,0.80
2019-03-09T10:12:49.364Z,1.00
2019-03-09T10:15:18.610Z,0.80
2019-03-09T10:17:45.996Z,0.93
2019-03-09T10:20:13.243Z,0.80
2019-03-09T10:22:40.563Z,0.90
2019-03-09T10:25:07.896Z,0.60
2019-03-09T10:27:35.167Z,0.50
2019-03-09T10:30:02.932Z,0.50
2019-03-09T10:32:30.363Z,0.60
2019-03-09T10:34:57.614Z,0.60
2019-03-09T10:37:24.822Z,0.50
2019-03-09T10:39:52.182Z,0.40
2019-03-09T10:42:19.520Z,0.57
2019-03-09T10:44:46.985Z,0.50
2019-03-09T10:47:14.612Z,0.43
2019-03-09T10:49:42.055Z,0.30
2019-03-09T10:52:09.318Z,0.40
2019-03-09T10:54:36.427Z,0.30
2019-03-09T10:57:03.851Z,0.30
2019-03-09T10:59:31.088Z,0.40
2019-03-09T11:01:58.339Z,0.50
2019-03-09T11:04:27.884Z,0.50
2019-03-09T11:06:54.908Z,0.30
2019-03-09T11:09:22.250Z,0.40
2019-03-09T11:11:49.588Z,0.43
2019-03-09T11:14:17.041Z,0.80
2019-03-09T11:16:44.365Z,0.40
2019-03-09T11:19:11.715Z,0.43
2019-03-09T11:21:39.091Z,0.37
2019-03-09T11:24:06.412Z,0.20
2019-03-09T11:26:33.753Z,0.20
2019-03-09T11:29:01.062Z,0.20
2019-03-09T11:31:28.299Z,0.10
2019-03-09T11:33:55.514Z,0.10
2019-03-09T11:36:22.864Z,0.20
2019-03-09T11:38:50.095Z,0.10
2019-03-09T11:41:19.268Z,0.20
2019-03-09T11:43:46.667Z,0.30
2019-03-09T11:46:14.014Z,0.13
2019-03-09T11:48:41.349Z,0.30
2019-03-09T11:51:08.795Z,0.23
2019-03-09T11:53:36.015Z,0.30
2019-03-09T11:56:03.273Z,0.30
2019-03-09T11:58:30.602Z,0.30
2019-03-09T12:00:57.847Z,0.40
2019-03-09T12:03:25.325Z,0.53
2019-03-09T12:05:52.903Z,0.53
2019-03-09T12:08:20.228Z,0.57
2019-03-09T12:10:47.464Z,0.43
2019-03-09T12:13:14.836Z,0.43
2019-03-09T12:15:42.249Z,0.60
2019-03-09T12:18:09.563Z,0.40
2019-03-09T12:20:37.018Z,0.53
2019-03-09T12:23:20.995Z,0.30
2019-03-09T12:25:48.215Z,0.50
2019-03-09T12:28:15.521Z,0.50
2019-03-09T12:30:42.760Z,0.43
2019-03-09T12:33:10.026Z,0.40
2019-03-09T12:35:37.244Z,0.53
2019-03-09T12:38:04.486Z,0.63
2019-03-09T12:40:31.821Z,0.70
2019-03-09T12:42:59.246Z,1.00
2019-03-09T12:45:26.560Z,1.10
2019-03-09T12:47:54.067Z,0.50
2019-03-09T12:50:21.399Z,0.90
2019-03-09T12:52:48.824Z,1.40
2019-03-09T12:55:16.169Z,2.10
2019-03-09T12:57:43.491Z,0.93
2019-03-09T13:00:13.224Z,1.47
2019-03-09T13:02:40.452Z,1.10
2019-03-09T13:05:07.783Z,1.60
2019-03-09T13:07:35.120Z,1.70
2019-03-09T13:10:02.563Z,1.60
2019-03-09T13:12:29.853Z,1.90
2019-03-09T13:14:57.195Z,1.70
2019-03-09T13:17:24.429Z,1.70
2019-03-09T13:19:51.781Z,2.10
2019-03-09T13:22:19.079Z,2.50
2019-03-09T13:24:46.476Z,2.10
2019-03-09T13:27:13.846Z,2.57
2019-03-09T13:29:41.156Z,2.93
2019-03-09T13:32:08.596Z,2.70
2019-03-09T13:34:35.966Z,2.70
2019-03-09T13:37:03.277Z,2.90
2019-03-09T13:39:30.496Z,2.10
2019-03-09T13:41:57.833Z,2.47
2019-03-09T13:44:25.147Z,3.37
2019-03-09T13:46:52.592Z,3.17
2019-03-09T13:49:19.905Z,2.00
2019-03-09T13:51:47.258Z,3.10
2019-03-09T13:54:14.581Z,2.03
2019-03-09T13:56:41.936Z,2.90
2019-03-09T13:59:09.244Z,3.93
2019-03-09T14:01:36.454Z,2.43
2019-03-09T14:04:03.715Z,2.07
2019-03-09T14:06:31.093Z,2.80
2019-03-09T14:09:00.788Z,3.50
2019-03-09T14:11:27.599Z,2.90
2019-03-09T14:13:54.904Z,2.80
2019-03-09T14:16:22.208Z,3.53
2019-03-09T14:18:49.452Z,2.50
2019-03-09T14:21:16.781Z,2.60
2019-03-09T14:23:44.159Z,2.70
2019-03-09T14:26:11.584Z,2.80
2019-03-09T14:28:38.933Z,3.10
2019-03-09T14:31:06.313Z,2.40
2019-03-09T14:33:33.623Z,3.10
2019-03-09T14:36:00.936Z,1.93
2019-03-09T14:38:28.232Z,2.33
2019-03-09T14:40:55.574Z,3.03
2019-03-09T14:43:22.811Z,2.90
2019-03-09T14:45:50.056Z,2.10
2019-03-09T14:48:17.406Z,2.30
2019-03-09T14:50:44.735Z,2.77
2019-03-09T14:53:12.095Z,3.07
2019-03-09T14:55:39.412Z,3.07
2019-03-09T14:58:06.722Z,2.03
2019-03-09T15:00:34.049Z,2.00
2019-03-09T15:03:01.380Z,2.40
2019-03-09T15:05:28.543Z,1.40
2019-03-09T15:07:55.856Z,2.50
2019-03-09T15:10:23.181Z,2.00
2019-03-09T15:12:50.458Z,1.67
2019-03-09T15:15:18.025Z,2.37
2019-03-09T15:17:45.558Z,2.20
2019-03-09T15:20:13.964Z,2.57
2019-03-09T15:22:41.384Z,2.10
2019-03-09T15:25:09.806Z,3.07
2019-03-09T15:27:37.137Z,2.00
2019-03-09T15:30:05.313Z,2.13
2019-03-09T15:32:32.650Z,2.60
2019-03-09T15:35:00.548Z,2.70
2019-03-09T15:37:28.032Z,3.07
2019-03-09T15:39:55.344Z,2.23
2019-03-09T15:42:22.699Z,2.10
2019-03-09T15:44:49.944Z,1.97
2019-03-09T15:47:17.353Z,1.97
2019-03-09T15:49:44.796Z,2.30
2019-03-09T15:52:12.114Z,2.47
2019-03-09T15:54:39.461Z,2.47
2019-03-09T15:57:06.817Z,2.07
2019-03-09T15:59:34.051Z,2.73
2019-03-09T16:02:07.848Z,2.13
2019-03-09T16:04:35.200Z,2.50
2019-03-09T16:07:06.039Z,1.80
2019-03-09T16:09:33.329Z,2.40
2019-03-09T16:12:00.623Z,2.07
2019-03-09T16:14:28.000Z,2.47
2019-03-09T16:16:55.379Z,2.00
2019-03-09T16:19:22.708Z,2.40
2019-03-09T16:21:50.060Z,1.80
2019-03-09T16:24:17.392Z,2.43
2019-03-09T16:26:44.718Z,2.50
2019-03-09T16:29:12.073Z,2.00
2019-03-09T16:31:39.468Z,2.77
2019-03-09T16:34:06.834Z,1.87
2019-03-09T16:36:34.177Z,1.70
2019-03-09T16:39:01.735Z,2.73
2019-03-09T16:41:28.955Z,2.67
2019-03-09T16:43:56.275Z,2.43
2019-03-09T16:46:23.584Z,1.73
2019-03-09T16:48:50.987Z,1.63
2019-03-09T16:51:18.234Z,2.60
2019-03-09T16:53:45.591Z,2.50
2019-03-09T16:56:12.828Z,1.50
2019-03-09T16:58:40.174Z,3.03
2019-03-09T17:01:07.549Z,2.40
2019-03-09T17:03:34.875Z,2.30
2019-03-09T17:06:02.227Z,2.23
2019-03-09T17:08:29.435Z,2.27
2019-03-09T17:10:56.890Z,2.77
2019-03-09T17:13:24.189Z,2.87
2019-03-09T17:15:51.546Z,3.03
2019-03-09T17:18:18.868Z,2.87
2019-03-09T17:20:46.132Z,2.70
2019-03-09T17:23:13.352Z,2.33
2019-03-09T17:25:40.837Z,2.30
2019-03-09T17:28:08.173Z,2.30
2019-03-09T17:30:35.515Z,2.60
2019-03-09T17:33:03.007Z,2.43
2019-03-09T17:35:32.804Z,2.10
2019-03-09T17:38:00.284Z,2.60
2019-03-09T17:40:27.658Z,1.83
2019-03-09T17:42:55.011Z,2.50
2019-03-09T17:45:22.291Z,2.33
2019-03-09T17:47:49.643Z,2.50
2019-03-09T17:50:16.963Z,2.63
2019-03-09T17:52:44.317Z,2.73
2019-03-09T17:55:11.783Z,2.90
2019-03-09T17:57:39.112Z,2.37
2019-03-09T18:00:11.422Z,3.57
2019-03-09T18:02:38.944Z,2.70
2019-03-09T18:05:06.927Z,1.73
2019-03-09T18:07:34.259Z,2.47
2019-03-09T18:10:01.718Z,1.60
2019-03-09T18:12:29.096Z,2.50
2019-03-09T18:14:56.715Z,2.43
2019-03-09T18:17:24.047Z,2.30
2019-03-09T18:19:51.319Z,2.63
2019-03-09T18:22:18.966Z,2.53
2019-03-09T18:24:46.185Z,2.60
2019-03-09T18:27:13.667Z,1.83
2019-03-09T18:29:41.000Z,2.80
2019-03-09T18:32:08.344Z,2.43
2019-03-09T18:34:35.670Z,2.43
2019-03-09T18:37:03.024Z,2.23
2019-03-09T18:39:30.388Z,2.90
2019-03-09T18:41:57.627Z,3.10
2019-03-09T18:44:24.885Z,2.13
2019-03-09T18:46:52.289Z,2.73
2019-03-09T18:49:19.727Z,2.47
2019-03-09T18:51:47.155Z,1.40
2019-03-09T18:54:14.403Z,2.10
2019-03-09T18:56:41.718Z,2.33
2019-03-09T18:59:09.166Z,3.17
2019-03-09T19:01:36.399Z,2.60
2019-03-09T19:04:03.647Z,2.50
2019-03-09T19:06:31.165Z,2.87
2019-03-09T19:08:58.520Z,2.83
2019-03-09T19:11:26.089Z,2.40
2019-03-09T19:13:53.420Z,2.50
2019-03-09T19:16:20.764Z,2.80
2019-03-09T19:18:48.075Z,2.17
2019-03-09T19:21:15.421Z,2.20
2019-03-09T19:23:42.831Z,1.73
2019-03-09T19:26:10.203Z,2.90
2019-03-09T19:28:37.423Z,2.17
2019-03-09T19:31:04.889Z,2.90
2019-03-09T19:33:32.296Z,2.03
2019-03-09T19:35:59.653Z,2.53
2019-03-09T19:38:27.134Z,2.40
2019-03-09T19:40:55.132Z,2.27
2019-03-09T19:43:22.605Z,2.20
2019-03-09T19:45:49.951Z,3.40
2019-03-09T19:48:17.153Z,2.10
2019-03-09T19:50:44.563Z,2.73
2019-03-09T19:53:11.920Z,2.60
2019-03-09T19:55:39.274Z,2.93
2019-03-09T19:58:06.508Z,2.10
2019-03-09T20:00:33.871Z,2.77
2019-03-09T20:03:01.149Z,2.57
2019-03-09T20:05:28.983Z,2.17
2019-03-09T20:07:56.292Z,1.90
2019-03-09T20:10:23.651Z,3.30
2019-03-09T20:12:51.061Z,2.07
2019-03-09T20:15:18.513Z,2.30
2019-03-09T20:17:46.054Z,2.37
2019-03-09T20:20:13.777Z,1.87
2019-03-09T20:22:41.220Z,2.90
2019-03-09T20:25:08.576Z,2.60
2019-03-09T20:27:35.897Z,1.83
2019-03-09T20:30:05.187Z,2.70
2019-03-09T20:32:32.542Z,2.30
2019-03-09T20:34:59.889Z,2.20
2019-03-09T20:37:27.150Z,2.30
2019-03-09T20:39:54.482Z,2.10
2019-03-09T20:42:21.740Z,2.63
2019-03-09T20:44:49.585Z,2.27
2019-03-09T20:47:16.911Z,2.60
2019-03-09T20:49:44.139Z,2.37
2019-03-09T20:52:11.570Z,2.63
2019-03-09T20:54:39.084Z,1.90
2019-03-09T20:57:06.384Z,1.93
2019-03-09T20:59:33.649Z,1.90
2019-03-09T21:02:01.005Z,2.50
2019-03-09T21:04:28.266Z,2.43
2019-03-09T21:06:55.680Z,2.47
2019-03-09T21:09:23.036Z,2.10
2019-03-09T21:11:50.407Z,2.80
2019-03-09T21:14:17.723Z,2.40
2019-03-09T21:16:44.981Z,2.50
2019-03-09T21:19:12.314Z,2.70
2019-03-09T21:21:39.548Z,1.83
2019-03-09T21:24:06.960Z,2.27
2019-03-09T21:26:34.326Z,2.23
2019-03-09T21:29:01.753Z,1.80
2019-03-09T21:31:29.161Z,3.10
2019-03-09T21:33:56.833Z,2.60
2019-03-09T21:36:24.446Z,1.90
2019-03-09T21:38:52.106Z,2.10
2019-03-09T21:41:19.448Z,1.03
2019-03-09T21:43:46.858Z,1.47
2019-03-09T21:46:14.228Z,1.97
2019-03-09T21:48:41.547Z,1.33
2019-03-09T21:51:08.820Z,1.33
2019-03-09T21:53:36.260Z,1.50
2019-03-09T21:56:03.706Z,1.87
2019-03-09T21:58:31.039Z,1.40
2019-03-09T22:00:58.475Z,1.13
2019-03-09T22:03:25.800Z,0.40
2019-03-09T22:05:53.079Z,1.20
2019-03-09T22:08:20.380Z,0.43
2019-03-09T22:10:47.494Z,1.00
2019-03-09T22:13:14.860Z,1.27
2019-03-09T22:15:42.108Z,0.70
2019-03-09T22:18:09.368Z,0.40
2019-03-09T22:20:36.687Z,0.47
2019-03-09T22:23:03.932Z,0.40
2019-03-09T22:25:31.251Z,0.33
2019-03-09T22:27:58.518Z,0.70
2019-03-09T22:30:25.848Z,0.97
2019-03-09T22:32:53.180Z,0.20
2019-03-09T22:35:20.491Z,0.40
2019-03-09T22:37:47.745Z,0.83
2019-03-09T22:40:15.081Z,0.73
2019-03-09T22:42:42.389Z,0.87
2019-03-09T22:45:09.974Z,0.80
2019-03-09T22:47:37.451Z,0.77
2019-03-09T22:50:06.056Z,0.77
2019-03-09T22:52:33.391Z,0.90
2019-03-09T22:55:00.661Z,0.77
2019-03-09T22:57:28.084Z,0.87
2019-03-09T22:59:55.440Z,1.00
2019-03-09T23:02:22.645Z,1.50
2019-03-09T23:04:50.047Z,0.80
2019-03-09T23:07:17.455Z,1.10
2019-03-09T23:09:44.765Z,1.70
2019-03-09T23:12:12.117Z,2.37
2019-03-09T23:14:39.485Z,1.87
2019-03-09T23:17:06.863Z,2.80
2019-03-09T23:19:34.084Z,2.17
2019-03-09T23:22:01.512Z,2.60
2019-03-09T23:24:28.827Z,2.80
2019-03-09T23:26:56.087Z,2.77
2019-03-09T23:29:23.429Z,3.10
2019-03-09T23:31:50.859Z,2.30
2019-03-09T23:34:18.205Z,2.10
2019-03-09T23:36:45.523Z,3.13
2019-03-09T23:39:12.859Z,2.30
2019-03-09T23:41:40.191Z,2.63
2019-03-09T23:44:07.432Z,2.63
2019-03-09T23:46:34.759Z,2.20
2019-03-09T23:49:02.077Z,2.90
2019-03-09T23:51:29.436Z,2.27
2019-03-09T23:53:56.851Z,2.60
2019-03-09T23:56:24.168Z,2.30
2019-03-09T23:58:51.402Z,2.13
